sensor_id;sensor_type;location;lat;lon;timestamp;pressure;altitude;pressure_sealevel;temperature;humidity
76868;BME280;66168;45.478;11.060;2023-02-28T00:00:53;101296.74;;;7.15;43.62
76868;BME280;66168;45.478;11.060;2023-02-28T00:03:20;101304.59;;;7.14;43.42
76868;BME280;66168;45.478;11.060;2023-02-28T00:05:46;101299.01;;;7.14;43.63
76868;BME280;66168;45.478;11.060;2023-02-28T00:08:13;101303.00;;;7.16;43.55
76868;BME280;66168;45.478;11.060;2023-02-28T00:10:40;101303.21;;;7.18;43.32
76868;BME280;66168;45.478;11.060;2023-02-28T00:13:07;101304.34;;;7.19;43.40
76868;BME280;66168;45.478;11.060;2023-02-28T00:15:34;101306.96;;;7.17;43.25
76868;BME280;66168;45.478;11.060;2023-02-28T00:18:01;101311.29;;;7.16;43.26
76868;BME280;66168;45.478;11.060;2023-02-28T00:20:28;101316.41;;;7.14;43.26
76868;BME280;66168;45.478;11.060;2023-02-28T00:22:56;101320.45;;;7.12;43.11
76868;BME280;66168;45.478;11.060;2023-02-28T00:25:24;101327.13;;;7.13;43.55
76868;BME280;66168;45.478;11.060;2023-02-28T00:27:52;101329.34;;;7.12;43.10
76868;BME280;66168;45.478;11.060;2023-02-28T00:30:21;101329.11;;;7.03;43.01
76868;BME280;66168;45.478;11.060;2023-02-28T00:32:48;101327.30;;;6.97;43.02
76868;BME280;66168;45.478;11.060;2023-02-28T00:35:16;101329.71;;;6.94;43.14
76868;BME280;66168;45.478;11.060;2023-02-28T00:37:42;101331.84;;;6.92;43.31
76868;BME280;66168;45.478;11.060;2023-02-28T00:40:10;101335.70;;;6.90;43.51
76868;BME280;66168;45.478;11.060;2023-02-28T00:42:39;101335.88;;;6.88;43.25
76868;BME280;66168;45.478;11.060;2023-02-28T00:45:07;101335.54;;;6.88;43.09
76868;BME280;66168;45.478;11.060;2023-02-28T00:47:37;101334.42;;;6.88;43.53
76868;BME280;66168;45.478;11.060;2023-02-28T00:50:04;101332.90;;;6.80;42.99
76868;BME280;66168;45.478;11.060;2023-02-28T00:52:31;101332.55;;;6.72;43.10
76868;BME280;66168;45.478;11.060;2023-02-28T00:54:58;101330.23;;;6.70;43.33
76868;BME280;66168;45.478;11.060;2023-02-28T00:57:24;101334.30;;;6.72;43.37
76868;BME280;66168;45.478;11.060;2023-02-28T00:59:51;101335.69;;;6.74;43.48
76868;BME280;66168;45.478;11.060;2023-02-28T01:02:21;101338.77;;;6.79;43.62
76868;BME280;66168;45.478;11.060;2023-02-28T01:04:50;101342.69;;;6.83;43.81
76868;BME280;66168;45.478;11.060;2023-02-28T01:07:17;101341.90;;;6.83;43.33
76868;BME280;66168;45.478;11.060;2023-02-28T01:09:45;101342.09;;;6.80;43.46
76868;BME280;66168;45.478;11.060;2023-02-28T01:12:12;101343.56;;;6.73;44.02
76868;BME280;66168;45.478;11.060;2023-02-28T01:14:38;101349.29;;;6.72;44.36
76868;BME280;66168;45.478;11.060;2023-02-28T01:17:05;101350.94;;;6.65;44.16
76868;BME280;66168;45.478;11.060;2023-02-28T01:19:32;101350.08;;;6.57;44.05
76868;BME280;66168;45.478;11.060;2023-02-28T01:22:04;101351.58;;;6.54;44.19
76868;BME280;66168;45.478;11.060;2023-02-28T01:24:32;101355.27;;;6.52;44.06
76868;BME280;66168;45.478;11.060;2023-02-28T01:27:00;101354.42;;;6.50;44.11
76868;BME280;66168;45.478;11.060;2023-02-28T01:29:26;101354.59;;;6.44;44.08
76868;BME280;66168;45.478;11.060;2023-02-28T01:31:53;101349.23;;;6.45;44.40
76868;BME280;66168;45.478;11.060;2023-02-28T01:34:20;101346.84;;;6.46;44.53
76868;BME280;66168;45.478;11.060;2023-02-28T01:36:46;101347.71;;;6.48;44.57
76868;BME280;66168;45.478;11.060;2023-02-28T01:39:13;101347.46;;;6.53;44.66
76868;BME280;66168;45.478;11.060;2023-02-28T01:41:40;101348.81;;;6.57;44.78
76868;BME280;66168;45.478;11.060;2023-02-28T01:47:13;101352.59;;;6.56;44.47
76868;BME280;66168;45.478;11.060;2023-02-28T01:49:40;101351.31;;;6.55;44.44
76868;BME280;66168;45.478;11.060;2023-02-28T01:52:07;101351.18;;;6.50;44.29
76868;BME280;66168;45.478;11.060;2023-02-28T01:54:34;101354.23;;;6.50;44.35
76868;BME280;66168;45.478;11.060;2023-02-28T01:57:11;101352.52;;;6.49;44.35
76868;BME280;66168;45.478;11.060;2023-02-28T01:59:43;101353.77;;;6.47;44.59
76868;BME280;66168;45.478;11.060;2023-02-28T02:02:20;101356.19;;;6.46;44.47
76868;BME280;66168;45.478;11.060;2023-02-28T02:05:00;101355.98;;;6.46;44.55
76868;BME280;66168;45.478;11.060;2023-02-28T02:07:32;101353.54;;;6.44;44.44
76868;BME280;66168;45.478;11.060;2023-02-28T02:10:25;101352.52;;;6.43;44.58
76868;BME280;66168;45.478;11.060;2023-02-28T02:16:10;101342.07;;;6.52;44.66
76868;BME280;66168;45.478;11.060;2023-02-28T02:18:44;101342.45;;;6.54;44.65
76868;BME280;66168;45.478;11.060;2023-02-28T02:35:12;101320.74;;;6.64;44.28
76868;BME280;66168;45.478;11.060;2023-02-28T02:37:50;101318.95;;;6.64;44.11
76868;BME280;66168;45.478;11.060;2023-02-28T02:40:22;101322.29;;;6.67;44.02
76868;BME280;66168;45.478;11.060;2023-02-28T02:42:53;101314.11;;;6.71;44.14
76868;BME280;66168;45.478;11.060;2023-02-28T02:45:34;101319.83;;;6.70;43.93
76868;BME280;66168;45.478;11.060;2023-02-28T02:48:07;101318.81;;;6.68;43.91
76868;BME280;66168;45.478;11.060;2023-02-28T02:50:38;101321.88;;;6.69;44.28
76868;BME280;66168;45.478;11.060;2023-02-28T02:53:08;101328.23;;;6.71;44.25
76868;BME280;66168;45.478;11.060;2023-02-28T02:55:40;101329.59;;;6.62;43.86
76868;BME280;66168;45.478;11.060;2023-02-28T02:58:11;101325.96;;;6.61;44.18
76868;BME280;66168;45.478;11.060;2023-02-28T03:00:48;101323.27;;;6.63;44.07
76868;BME280;66168;45.478;11.060;2023-02-28T03:03:18;101323.67;;;6.65;44.18
76868;BME280;66168;45.478;11.060;2023-02-28T03:05:49;101318.80;;;6.64;44.45
76868;BME280;66168;45.478;11.060;2023-02-28T03:08:17;101318.20;;;6.67;44.45
76868;BME280;66168;45.478;11.060;2023-02-28T03:10:46;101321.48;;;6.72;44.39
76868;BME280;66168;45.478;11.060;2023-02-28T03:16:03;101320.55;;;6.72;44.05
76868;BME280;66168;45.478;11.060;2023-02-28T03:23:54;101323.16;;;6.74;43.99
76868;BME280;66168;45.478;11.060;2023-02-28T03:26:26;101323.66;;;6.79;44.17
76868;BME280;66168;45.478;11.060;2023-02-28T03:31:34;101320.45;;;6.83;43.77
76868;BME280;66168;45.478;11.060;2023-02-28T03:34:10;101320.98;;;6.83;43.98
76868;BME280;66168;45.478;11.060;2023-02-28T03:36:39;101321.16;;;6.79;43.71
76868;BME280;66168;45.478;11.060;2023-02-28T03:39:16;101324.45;;;6.75;44.05
76868;BME280;66168;45.478;11.060;2023-02-28T03:41:51;101319.44;;;6.73;44.05
76868;BME280;66168;45.478;11.060;2023-02-28T03:44:42;101323.17;;;6.74;44.32
76868;BME280;66168;45.478;11.060;2023-02-28T03:47:17;101323.77;;;6.74;44.27
76868;BME280;66168;45.478;11.060;2023-02-28T03:49:52;101322.02;;;6.74;44.34
76868;BME280;66168;45.478;11.060;2023-02-28T03:52:23;101325.27;;;6.70;44.17
76868;BME280;66168;45.478;11.060;2023-02-28T03:54:56;101329.33;;;6.72;43.99
76868;BME280;66168;45.478;11.060;2023-02-28T03:57:58;101332.23;;;6.70;44.14
76868;BME280;66168;45.478;11.060;2023-02-28T04:00:33;101335.93;;;6.64;44.33
76868;BME280;66168;45.478;11.060;2023-02-28T04:03:01;101332.35;;;6.58;44.31
76868;BME280;66168;45.478;11.060;2023-02-28T04:05:29;101330.14;;;6.55;44.47
76868;BME280;66168;45.478;11.060;2023-02-28T04:08:07;101333.86;;;6.57;44.40
76868;BME280;66168;45.478;11.060;2023-02-28T04:10:34;101330.86;;;6.55;44.36
76868;BME280;66168;45.478;11.060;2023-02-28T04:13:00;101335.38;;;6.56;44.38
76868;BME280;66168;45.478;11.060;2023-02-28T04:15:27;101341.14;;;6.58;44.75
76868;BME280;66168;45.478;11.060;2023-02-28T04:17:54;101342.92;;;6.60;45.11
76868;BME280;66168;45.478;11.060;2023-02-28T04:20:21;101344.87;;;6.58;45.67
76868;BME280;66168;45.478;11.060;2023-02-28T04:22:47;101345.13;;;6.55;45.20
76868;BME280;66168;45.478;11.060;2023-02-28T04:25:14;101351.04;;;6.54;45.48
76868;BME280;66168;45.478;11.060;2023-02-28T04:27:40;101354.89;;;6.46;45.43
76868;BME280;66168;45.478;11.060;2023-02-28T04:30:08;101358.95;;;6.46;45.29
76868;BME280;66168;45.478;11.060;2023-02-28T04:32:34;101369.04;;;6.46;45.81
76868;BME280;66168;45.478;11.060;2023-02-28T04:35:01;101369.38;;;6.35;45.14
76868;BME280;66168;45.478;11.060;2023-02-28T04:37:28;101370.10;;;6.31;45.04
76868;BME280;66168;45.478;11.060;2023-02-28T04:39:55;101371.71;;;6.32;45.08
76868;BME280;66168;45.478;11.060;2023-02-28T04:42:22;101368.84;;;6.33;44.59
76868;BME280;66168;45.478;11.060;2023-02-28T04:44:48;101371.54;;;6.35;44.89
76868;BME280;66168;45.478;11.060;2023-02-28T04:47:15;101373.09;;;6.39;44.76
76868;BME280;66168;45.478;11.060;2023-02-28T04:49:42;101371.27;;;6.40;45.17
76868;BME280;66168;45.478;11.060;2023-02-28T04:52:09;101370.38;;;6.42;44.98
76868;BME280;66168;45.478;11.060;2023-02-28T04:54:36;101371.21;;;6.41;45.09
76868;BME280;66168;45.478;11.060;2023-02-28T04:57:07;101369.76;;;6.40;44.99
76868;BME280;66168;45.478;11.060;2023-02-28T04:59:33;101368.15;;;6.40;45.27
76868;BME280;66168;45.478;11.060;2023-02-28T05:02:00;101370.17;;;6.41;45.20
76868;BME280;66168;45.478;11.060;2023-02-28T05:04:34;101365.23;;;6.41;44.84
76868;BME280;66168;45.478;11.060;2023-02-28T05:07:02;101370.27;;;6.39;45.01
76868;BME280;66168;45.478;11.060;2023-02-28T05:09:29;101374.18;;;6.43;45.45
76868;BME280;66168;45.478;11.060;2023-02-28T05:11:56;101377.17;;;6.47;45.33
76868;BME280;66168;45.478;11.060;2023-02-28T05:14:23;101376.09;;;6.50;45.50
76868;BME280;66168;45.478;11.060;2023-02-28T05:16:49;101373.70;;;6.49;45.50
76868;BME280;66168;45.478;11.060;2023-02-28T05:19:16;101374.42;;;6.46;45.15
76868;BME280;66168;45.478;11.060;2023-02-28T05:21:51;101370.55;;;6.47;44.99
76868;BME280;66168;45.478;11.060;2023-02-28T05:24:19;101370.95;;;6.46;44.98
76868;BME280;66168;45.478;11.060;2023-02-28T05:26:51;101374.02;;;6.47;44.89
76868;BME280;66168;45.478;11.060;2023-02-28T05:29:19;101374.43;;;6.50;44.93
76868;BME280;66168;45.478;11.060;2023-02-28T05:31:46;101369.93;;;6.52;44.82
76868;BME280;66168;45.478;11.060;2023-02-28T05:34:13;101370.14;;;6.55;44.89
76868;BME280;66168;45.478;11.060;2023-02-28T05:36:42;101366.72;;;6.54;44.40
76868;BME280;66168;45.478;11.060;2023-02-28T05:39:09;101373.36;;;6.55;44.98
76868;BME280;66168;45.478;11.060;2023-02-28T05:41:43;101368.00;;;6.50;44.83
76868;BME280;66168;45.478;11.060;2023-02-28T05:44:10;101373.73;;;6.51;44.97
76868;BME280;66168;45.478;11.060;2023-02-28T05:46:37;101376.76;;;6.48;44.89
76868;BME280;66168;45.478;11.060;2023-02-28T05:49:04;101377.48;;;6.46;44.73
76868;BME280;66168;45.478;11.060;2023-02-28T05:51:31;101379.88;;;6.45;44.65
76868;BME280;66168;45.478;11.060;2023-02-28T05:53:59;101380.34;;;6.43;44.92
76868;BME280;66168;45.478;11.060;2023-02-28T05:56:27;101378.68;;;6.44;45.04
76868;BME280;66168;45.478;11.060;2023-02-28T05:58:54;101378.33;;;6.46;45.05
76868;BME280;66168;45.478;11.060;2023-02-28T06:01:25;101381.45;;;6.45;44.95
76868;BME280;66168;45.478;11.060;2023-02-28T06:04:01;101377.07;;;6.44;45.12
76868;BME280;66168;45.478;11.060;2023-02-28T06:06:28;101376.10;;;6.45;45.04
76868;BME280;66168;45.478;11.060;2023-02-28T06:09:05;101379.92;;;6.46;44.89
76868;BME280;66168;45.478;11.060;2023-02-28T06:11:32;101379.98;;;6.45;44.86
76868;BME280;66168;45.478;11.060;2023-02-28T06:14:00;101386.87;;;6.45;44.95
76868;BME280;66168;45.478;11.060;2023-02-28T06:16:28;101388.73;;;6.48;45.16
76868;BME280;66168;45.478;11.060;2023-02-28T06:19:00;101391.73;;;6.44;45.03
76868;BME280;66168;45.478;11.060;2023-02-28T06:21:27;101393.91;;;6.43;45.38
76868;BME280;66168;45.478;11.060;2023-02-28T06:23:57;101398.66;;;6.47;45.76
76868;BME280;66168;45.478;11.060;2023-02-28T06:26:24;101401.88;;;6.51;45.47
76868;BME280;66168;45.478;11.060;2023-02-28T06:28:50;101399.79;;;6.55;45.41
76868;BME280;66168;45.478;11.060;2023-02-28T06:31:18;101403.16;;;6.58;45.24
76868;BME280;66168;45.478;11.060;2023-02-28T06:33:46;101407.26;;;6.64;45.49
76868;BME280;66168;45.478;11.060;2023-02-28T06:36:13;101407.65;;;6.67;45.74
76868;BME280;66168;45.478;11.060;2023-02-28T06:38:41;101409.45;;;6.69;45.56
76868;BME280;66168;45.478;11.060;2023-02-28T06:41:08;101409.13;;;6.73;45.53
76868;BME280;66168;45.478;11.060;2023-02-28T06:43:40;101413.66;;;6.81;45.33
76868;BME280;66168;45.478;11.060;2023-02-28T06:46:10;101416.25;;;6.98;45.27
76868;BME280;66168;45.478;11.060;2023-02-28T06:48:37;101418.27;;;7.11;45.07
76868;BME280;66168;45.478;11.060;2023-02-28T06:51:05;101417.79;;;7.22;44.84
76868;BME280;66168;45.478;11.060;2023-02-28T06:53:33;101416.60;;;7.32;44.57
76868;BME280;66168;45.478;11.060;2023-02-28T06:56:03;101422.48;;;7.41;44.52
76868;BME280;66168;45.478;11.060;2023-02-28T06:58:32;101422.22;;;7.52;44.43
76868;BME280;66168;45.478;11.060;2023-02-28T07:00:59;101427.30;;;7.62;44.54
76868;BME280;66168;45.478;11.060;2023-02-28T07:03:25;101429.04;;;7.70;44.47
76868;BME280;66168;45.478;11.060;2023-02-28T07:05:52;101426.70;;;7.78;44.56
76868;BME280;66168;45.478;11.060;2023-02-28T07:08:19;101424.27;;;7.87;44.07
76868;BME280;66168;45.478;11.060;2023-02-28T07:10:46;101425.29;;;7.97;44.40
76868;BME280;66168;45.478;11.060;2023-02-28T07:13:13;101419.68;;;8.06;43.46
76868;BME280;66168;45.478;11.060;2023-02-28T07:15:39;101424.70;;;8.17;43.25
76868;BME280;66168;45.478;11.060;2023-02-28T07:18:09;101426.03;;;8.27;43.13
76868;BME280;66168;45.478;11.060;2023-02-28T07:20:36;101424.75;;;8.34;43.64
76868;BME280;66168;45.478;11.060;2023-02-28T07:23:03;101421.95;;;8.41;42.87
76868;BME280;66168;45.478;11.060;2023-02-28T07:25:29;101421.94;;;8.51;42.99
76868;BME280;66168;45.478;11.060;2023-02-28T07:27:56;101423.64;;;8.61;42.87
76868;BME280;66168;45.478;11.060;2023-02-28T07:30:22;101426.66;;;8.68;41.79
76868;BME280;66168;45.478;11.060;2023-02-28T07:32:49;101424.88;;;8.75;42.30
76868;BME280;66168;45.478;11.060;2023-02-28T07:35:16;101422.42;;;8.83;42.70
76868;BME280;66168;45.478;11.060;2023-02-28T07:37:42;101425.83;;;8.82;42.23
76868;BME280;66168;45.478;11.060;2023-02-28T07:40:10;101423.98;;;8.73;41.88
76868;BME280;66168;45.478;11.060;2023-02-28T07:42:41;101422.15;;;8.52;40.94
76868;BME280;66168;45.478;11.060;2023-02-28T07:45:10;101420.64;;;8.42;41.67
76868;BME280;66168;45.478;11.060;2023-02-28T07:47:38;101418.70;;;8.32;42.15
76868;BME280;66168;45.478;11.060;2023-02-28T07:50:07;101415.96;;;8.25;42.31
76868;BME280;66168;45.478;11.060;2023-02-28T07:52:34;101417.72;;;8.26;42.63
76868;BME280;66168;45.478;11.060;2023-02-28T07:55:02;101417.67;;;8.30;42.45
76868;BME280;66168;45.478;11.060;2023-02-28T07:57:29;101418.86;;;8.42;42.65
76868;BME280;66168;45.478;11.060;2023-02-28T07:59:58;101421.25;;;8.60;41.98
76868;BME280;66168;45.478;11.060;2023-02-28T08:02:25;101424.03;;;8.68;41.82
76868;BME280;66168;45.478;11.060;2023-02-28T08:04:51;101424.08;;;8.71;41.21
76868;BME280;66168;45.478;11.060;2023-02-28T08:07:18;101427.16;;;8.83;41.80
76868;BME280;66168;45.478;11.060;2023-02-28T08:09:45;101424.63;;;8.92;41.25
76868;BME280;66168;45.478;11.060;2023-02-28T08:12:12;101423.02;;;8.98;40.41
76868;BME280;66168;45.478;11.060;2023-02-28T08:14:38;101423.55;;;8.98;40.41
76868;BME280;66168;45.478;11.060;2023-02-28T08:17:06;101427.99;;;9.09;40.89
76868;BME280;66168;45.478;11.060;2023-02-28T08:19:33;101428.42;;;9.26;41.10
76868;BME280;66168;45.478;11.060;2023-02-28T08:21:59;101429.80;;;9.36;39.93
76868;BME280;66168;45.478;11.060;2023-02-28T08:24:26;101430.09;;;9.51;40.22
76868;BME280;66168;45.478;11.060;2023-02-28T08:26:53;101422.11;;;9.60;39.42
76868;BME280;66168;45.478;11.060;2023-02-28T08:29:20;101422.02;;;9.59;39.29
76868;BME280;66168;45.478;11.060;2023-02-28T08:31:47;101431.59;;;9.72;39.33
76868;BME280;66168;45.478;11.060;2023-02-28T08:34:15;101431.70;;;9.85;39.62
76868;BME280;66168;45.478;11.060;2023-02-28T08:36:42;101428.64;;;10.06;39.70
76868;BME280;66168;45.478;11.060;2023-02-28T08:39:12;101431.20;;;10.16;38.59
76868;BME280;66168;45.478;11.060;2023-02-28T08:41:38;101425.11;;;10.22;38.77
76868;BME280;66168;45.478;11.060;2023-02-28T08:44:05;101425.17;;;10.34;38.92
76868;BME280;66168;45.478;11.060;2023-02-28T08:46:32;101426.79;;;10.44;39.24
76868;BME280;66168;45.478;11.060;2023-02-28T08:48:58;101424.80;;;10.63;38.50
76868;BME280;66168;45.478;11.060;2023-02-28T08:51:28;101426.86;;;10.76;37.76
76868;BME280;66168;45.478;11.060;2023-02-28T08:53:59;101431.04;;;10.90;37.43
76868;BME280;66168;45.478;11.060;2023-02-28T08:56:27;101425.58;;;10.76;36.44
76868;BME280;66168;45.478;11.060;2023-02-28T08:58:56;101422.35;;;10.77;36.77
76868;BME280;66168;45.478;11.060;2023-02-28T09:01:27;101423.20;;;10.56;36.65
76868;BME280;66168;45.478;11.060;2023-02-28T09:03:56;101423.77;;;10.70;36.94
76868;BME280;66168;45.478;11.060;2023-02-28T09:06:26;101422.66;;;10.55;36.22
76868;BME280;66168;45.478;11.060;2023-02-28T09:08:57;101426.02;;;10.62;36.62
76868;BME280;66168;45.478;11.060;2023-02-28T09:11:25;101427.84;;;10.87;37.13
76868;BME280;66168;45.478;11.060;2023-02-28T09:13:51;101427.55;;;10.98;36.51
76868;BME280;66168;45.478;11.060;2023-02-28T09:16:19;101432.16;;;10.89;36.18
76868;BME280;66168;45.478;11.060;2023-02-28T09:18:45;101434.13;;;10.84;36.40
76868;BME280;66168;45.478;11.060;2023-02-28T09:21:14;101442.13;;;10.60;35.88
76868;BME280;66168;45.478;11.060;2023-02-28T09:23:46;101438.16;;;10.54;36.51
76868;BME280;66168;45.478;11.060;2023-02-28T09:26:18;101434.45;;;10.76;36.57
76868;BME280;66168;45.478;11.060;2023-02-28T09:28:45;101434.95;;;10.93;36.36
76868;BME280;66168;45.478;11.060;2023-02-28T09:31:14;101436.65;;;11.08;36.37
76868;BME280;66168;45.478;11.060;2023-02-28T09:33:42;101434.52;;;11.13;35.21
76868;BME280;66168;45.478;11.060;2023-02-28T09:36:08;101432.23;;;11.26;35.98
76868;BME280;66168;45.478;11.060;2023-02-28T09:38:35;101433.80;;;11.20;35.13
76868;BME280;66168;45.478;11.060;2023-02-28T09:41:08;101433.25;;;11.23;35.39
76868;BME280;66168;45.478;11.060;2023-02-28T09:43:40;101431.71;;;11.39;35.42
76868;BME280;66168;45.478;11.060;2023-02-28T09:46:25;101431.52;;;11.42;35.02
76868;BME280;66168;45.478;11.060;2023-02-28T09:48:54;101435.02;;;11.56;35.10
76868;BME280;66168;45.478;11.060;2023-02-28T09:51:33;101433.36;;;11.55;34.89
76868;BME280;66168;45.478;11.060;2023-02-28T09:54:04;101432.44;;;11.76;35.01
76868;BME280;66168;45.478;11.060;2023-02-28T09:56:36;101425.04;;;11.95;34.98
76868;BME280;66168;45.478;11.060;2023-02-28T10:02:19;101421.42;;;12.39;34.15
76868;BME280;66168;45.478;11.060;2023-02-28T10:05:05;101430.00;;;12.29;33.45
76868;BME280;66168;45.478;11.060;2023-02-28T10:14:02;101424.81;;;12.45;33.45
76868;BME280;66168;45.478;11.060;2023-02-28T10:16:45;101427.20;;;12.32;33.54
76868;BME280;66168;45.478;11.060;2023-02-28T10:19:40;101428.17;;;12.24;33.77
76868;BME280;66168;45.478;11.060;2023-02-28T10:22:22;101424.22;;;12.39;33.82
76868;BME280;66168;45.478;11.060;2023-02-28T10:24:54;101421.57;;;12.53;33.72
76868;BME280;66168;45.478;11.060;2023-02-28T10:27:25;101416.48;;;12.62;33.96
76868;BME280;66168;45.478;11.060;2023-02-28T10:29:59;101417.70;;;12.83;34.02
76868;BME280;66168;45.478;11.060;2023-02-28T10:32:29;101418.48;;;13.01;33.88
76868;BME280;66168;45.478;11.060;2023-02-28T10:37:28;101414.05;;;12.44;33.34
76868;BME280;66168;45.478;11.060;2023-02-28T10:39:54;101414.98;;;12.56;33.98
76868;BME280;66168;45.478;11.060;2023-02-28T10:42:26;101416.66;;;12.35;33.80
76868;BME280;66168;45.478;11.060;2023-02-28T10:45:13;101412.65;;;12.43;33.93
76868;BME280;66168;45.478;11.060;2023-02-28T10:47:55;101407.89;;;12.29;34.02
76868;BME280;66168;45.478;11.060;2023-02-28T11:03:56;101387.70;;;12.40;34.88
76868;BME280;66168;45.478;11.060;2023-02-28T11:06:30;101388.60;;;12.49;34.20
76868;BME280;66168;45.478;11.060;2023-02-28T11:09:00;101382.64;;;12.79;34.31
76868;BME280;66168;45.478;11.060;2023-02-28T11:11:30;101380.77;;;12.90;33.48
76868;BME280;66168;45.478;11.060;2023-02-28T11:14:04;101376.17;;;12.98;33.44
76868;BME280;66168;45.478;11.060;2023-02-28T11:16:37;101371.94;;;13.08;33.65
76868;BME280;66168;45.478;11.060;2023-02-28T11:19:06;101368.71;;;12.93;33.26
76868;BME280;66168;45.478;11.060;2023-02-28T11:21:50;101366.09;;;13.02;33.41
76868;BME280;66168;45.478;11.060;2023-02-28T11:24:26;101365.46;;;13.11;33.22
76868;BME280;66168;45.478;11.060;2023-02-28T11:26:54;101362.56;;;13.28;33.25
76868;BME280;66168;45.478;11.060;2023-02-28T11:29:28;101359.10;;;13.28;32.98
76868;BME280;66168;45.478;11.060;2023-02-28T11:34:30;101347.31;;;13.32;33.40
76868;BME280;66168;45.478;11.060;2023-02-28T11:36:59;101349.20;;;13.28;32.66
76868;BME280;66168;45.478;11.060;2023-02-28T11:39:27;101346.79;;;13.26;33.12
76868;BME280;66168;45.478;11.060;2023-02-28T11:53:00;101321.73;;;13.07;32.84
76868;BME280;66168;45.478;11.060;2023-02-28T11:55:32;101320.11;;;12.98;33.07
76868;BME280;66168;45.478;11.060;2023-02-28T12:03:48;101307.53;;;12.82;33.45
76868;BME280;66168;45.478;11.060;2023-02-28T12:11:37;101291.86;;;13.22;33.52
76868;BME280;66168;45.478;11.060;2023-02-28T12:16:50;101284.98;;;13.29;33.50
76868;BME280;66168;45.478;11.060;2023-02-28T12:19:26;101287.02;;;13.25;33.12
76868;BME280;66168;45.478;11.060;2023-02-28T12:22:26;101285.12;;;13.16;33.38
76868;BME280;66168;45.478;11.060;2023-02-28T12:27:25;101281.21;;;12.92;33.60
76868;BME280;66168;45.478;11.060;2023-02-28T12:30:02;101276.89;;;12.35;34.45
76868;BME280;66168;45.478;11.060;2023-02-28T12:32:37;101264.96;;;12.54;34.71
76868;BME280;66168;45.478;11.060;2023-02-28T12:37:46;101262.61;;;13.09;34.44
76868;BME280;66168;45.478;11.060;2023-02-28T12:40:20;101256.61;;;13.46;33.91
76868;BME280;66168;45.478;11.060;2023-02-28T12:42:53;101257.72;;;13.58;33.34
76868;BME280;66168;45.478;11.060;2023-02-28T12:45:24;101257.04;;;13.66;33.43
76868;BME280;66168;45.478;11.060;2023-02-28T12:48:00;101256.22;;;13.61;33.26
76868;BME280;66168;45.478;11.060;2023-02-28T12:50:28;101247.01;;;13.61;33.19
76868;BME280;66168;45.478;11.060;2023-02-28T12:53:05;101247.31;;;13.67;33.44
76868;BME280;66168;45.478;11.060;2023-02-28T12:55:48;101241.52;;;13.79;33.38
76868;BME280;66168;45.478;11.060;2023-02-28T13:04:25;101236.83;;;13.51;33.45
76868;BME280;66168;45.478;11.060;2023-02-28T13:09:28;101224.27;;;13.77;33.82
76868;BME280;66168;45.478;11.060;2023-02-28T13:11:57;101229.75;;;13.63;33.29
76868;BME280;66168;45.478;11.060;2023-02-28T13:19:36;101229.40;;;13.76;33.59
76868;BME280;66168;45.478;11.060;2023-02-28T13:22:05;101223.02;;;13.63;33.49
76868;BME280;66168;45.478;11.060;2023-02-28T13:27:20;101209.41;;;13.77;33.73
76868;BME280;66168;45.478;11.060;2023-02-28T13:29:52;101205.06;;;13.86;33.77
76868;BME280;66168;45.478;11.060;2023-02-28T13:32:30;101204.91;;;14.01;33.93
76868;BME280;66168;45.478;11.060;2023-02-28T13:39:58;101204.98;;;13.94;33.47
76868;BME280;66168;45.478;11.060;2023-02-28T13:42:47;101205.84;;;13.74;33.88
76868;BME280;66168;45.478;11.060;2023-02-28T13:47:55;101210.02;;;13.72;34.15
76868;BME280;66168;45.478;11.060;2023-02-28T13:53:19;101197.95;;;13.48;34.42
76868;BME280;66168;45.478;11.060;2023-02-28T13:59:01;101192.75;;;13.15;34.54
76868;BME280;66168;45.478;11.060;2023-02-28T14:02:19;101190.36;;;13.02;35.10
76868;BME280;66168;45.478;11.060;2023-02-28T14:07:27;101187.55;;;12.71;35.80
76868;BME280;66168;45.478;11.060;2023-02-28T14:10:03;101185.54;;;12.67;35.60
76868;BME280;66168;45.478;11.060;2023-02-28T14:15:38;101185.67;;;12.43;36.15
76868;BME280;66168;45.478;11.060;2023-02-28T14:21:24;101178.67;;;12.25;36.45
76868;BME280;66168;45.478;11.060;2023-02-28T14:30:11;101174.23;;;12.25;36.52
76868;BME280;66168;45.478;11.060;2023-02-28T14:32:44;101173.20;;;12.23;36.79
76868;BME280;66168;45.478;11.060;2023-02-28T14:37:47;101166.30;;;12.20;37.14
76868;BME280;66168;45.478;11.060;2023-02-28T14:40:27;101167.53;;;12.17;36.99
76868;BME280;66168;45.478;11.060;2023-02-28T14:43:01;101160.83;;;12.01;37.11
76868;BME280;66168;45.478;11.060;2023-02-28T14:45:33;101159.72;;;11.97;37.36
76868;BME280;66168;45.478;11.060;2023-02-28T14:48:02;101151.96;;;11.93;37.37
76868;BME280;66168;45.478;11.060;2023-02-28T14:50:34;101154.03;;;11.95;37.65
76868;BME280;66168;45.478;11.060;2023-02-28T14:53:02;101151.81;;;11.99;37.44
76868;BME280;66168;45.478;11.060;2023-02-28T14:55:31;101148.95;;;11.96;37.68
76868;BME280;66168;45.478;11.060;2023-02-28T14:58:04;101151.23;;;11.95;37.98
76868;BME280;66168;45.478;11.060;2023-02-28T15:00:35;101149.40;;;11.92;38.24
76868;BME280;66168;45.478;11.060;2023-02-28T15:03:37;101149.64;;;11.93;38.15
76868;BME280;66168;45.478;11.060;2023-02-28T15:06:13;101150.27;;;11.87;38.01
76868;BME280;66168;45.478;11.060;2023-02-28T15:08:40;101151.66;;;11.85;38.19
76868;BME280;66168;45.478;11.060;2023-02-28T15:11:17;101157.83;;;11.82;38.40
76868;BME280;66168;45.478;11.060;2023-02-28T15:13:51;101155.49;;;11.74;38.45
76868;BME280;66168;45.478;11.060;2023-02-28T15:16:25;101149.92;;;11.73;38.46
76868;BME280;66168;45.478;11.060;2023-02-28T15:19:00;101151.42;;;11.67;38.55